Alexanr Zhitnikbm — EMBN — position and weather

sailwx.info

Track history (hours):
 
Tides and Currents Weather Stations Pressure Air Temp Water Temp Dewpoint Dewpoint Depression Visibility Wind Speed Wind Dir Waves Ship Positions

Alexanr Zhitnikbm

Last reported at 2014-Aug-30 03:09 UTC. Time now 2014-Sep-01 11:36 UTC.
Position N 46°36' E 031°28'.

Length 85 m.

Type: Ship (hazmat cat A). MMSI: 272089600.

Date/timePositionNaut miles runAvg speedWind from/ knotsBaromVisibWave heightAir tempDewpointWater temp
2014-Aug-30 03:09N 46°36' E 031°28'2 4.2
2014-Aug-30 02:33N 46°35' E 031°32'5 4.9
2014-Aug-30 01:34N 46°35' E 031°39'5 5.0
2014-Aug-30 00:31N 46°36' E 031°46'5 4.8
2014-Aug-29 23:31N 46°34' E 031°53'4 4.4
2014-Aug-29 22:31N 46°33' E 031°59'5 1.2
2014-Aug-29 18:04N 46°30' E 032°04'7 0.5
2014-Aug-29 04:28N 46°33' E 032°13'  
2014-Aug-25 22:14N 46°33' E 032°13'3 4.2
2014-Aug-25 21:33N 46°32' E 032°09'4 4.1
2014-Aug-25 20:34N 46°32' E 032°03'4 4.4
2014-Aug-25 19:33N 46°34' E 031°57'5 4.5
2014-Aug-25 18:33N 46°35' E 031°50'5 4.7
2014-Aug-25 17:33N 46°35' E 031°44'  
2014-Aug-23 03:29N 46°35' E 031°36'5 5.7
2014-Aug-23 02:33N 46°36' E 031°43'6 5.6
2014-Aug-23 01:33N 46°35' E 031°51'6 5.7
2014-Aug-23 00:33N 46°33' E 031°59'6 5.6
2014-Aug-22 23:33N 46°32' E 032°07'  
Track history (hours):
 
Tides and Currents Weather Stations Pressure Air Temp Water Temp Dewpoint Dewpoint Depression Visibility Wind Speed Wind Dir Waves Ship Positions

Alexanr Zhitnikbm

Last reported at 2014-Aug-30 03:09 UTC. Time now 2014-Sep-01 11:36 UTC.
Position N 46°36' E 031°28'.

Length 85 m.

Type: Ship (hazmat cat A). MMSI: 272089600.

Date/timePositionNaut miles runAvg speedWind from/ knotsBaromVisibWave heightAir tempDewpointWater temp
2014-Aug-30 03:09N 46°36' E 031°28'2 4.2
2014-Aug-30 02:33N 46°35' E 031°32'5 4.9
2014-Aug-30 01:34N 46°35' E 031°39'5 5.0
2014-Aug-30 00:31N 46°36' E 031°46'5 4.8
2014-Aug-29 23:31N 46°34' E 031°53'4 4.4
2014-Aug-29 22:31N 46°33' E 031°59'5 1.2
2014-Aug-29 18:04N 46°30' E 032°04'7 0.5
2014-Aug-29 04:28N 46°33' E 032°13'  
2014-Aug-25 22:14N 46°33' E 032°13'3 4.2
2014-Aug-25 21:33N 46°32' E 032°09'4 4.1
2014-Aug-25 20:34N 46°32' E 032°03'4 4.4
2014-Aug-25 19:33N 46°34' E 031°57'5 4.5
2014-Aug-25 18:33N 46°35' E 031°50'5 4.7
2014-Aug-25 17:33N 46°35' E 031°44'  
2014-Aug-23 03:29N 46°35' E 031°36'5 5.7
2014-Aug-23 02:33N 46°36' E 031°43'6 5.6
2014-Aug-23 01:33N 46°35' E 031°51'6 5.7
2014-Aug-23 00:33N 46°33' E 031°59'6 5.6
2014-Aug-22 23:33N 46°32' E 032°07'  

Dump ship's entire track history